Latest Weather Observations for Legendre Island

IDW60801

Issued at 9:32 am WST Saturday 25 April 2015 (issued every 30 minutes, with the page automatically refreshed every 10 minutes)

About weather observations | Map of weather stations | Latest weather observations for WA | Other Formats
Station Details ID: 004095 Name: LEGENDRE ISLAND Lat: -20.36 Lon: 116.84 Height: 29.0 m
Data from the previous 72 hours. | See also: Recent months for locations in Western Australia
Date/Time
WST
Temp
°C
App
Temp
°C
Dew
Point
Rel
Hum
%
Delta-T
°C
Wind Press
QNH
hPa
Press
MSL
hPa
Rain
since 9 am
mm
Dir
 
Spd
km/h
Gust
km/h
Spd
kts
Gust
kts
25/09:30am 25.7 16.6 14.8 51 6.5 E 56 65 30 35 1013.9 1013.8 -
25/09:00am 25.8 17.1 14.9 51 6.6 E 54 63 29 34 1013.8 1013.7 -
25/08:30am 25.7 16.8 15.4 53 6.2 E 56 65 30 35 1013.6 1013.5 -
25/08:00am 25.5 16.9 15.2 53 6.2 E 54 65 29 35 1013.1 1013.0 -
25/07:30am 24.9 16.7 15.2 54 5.8 E 52 59 28 32 1012.9 1012.8 -
25/07:00am 24.7 17.9 15.9 58 5.4 E 46 56 25 30 1012.7 1012.6 -
25/06:30am 24.8 18.1 16.0 58 5.4 E 46 56 25 30 1012.3 1012.1 -
25/06:00am 24.8 18.5 16.2 58 5.3 E 44 52 24 28 1011.9 1011.7 -
25/05:30am 24.8 19.0 17.0 62 4.8 ESE 43 50 23 27 1011.8 1011.6 -
25/05:00am 24.7 19.3 16.9 62 4.8 ESE 41 48 22 26 1011.6 1011.4 -
25/04:30am 25.0 19.9 17.7 64 4.6 ESE 41 48 22 26 1011.6 1011.4 -
25/04:00am 25.3 20.6 17.7 62 4.8 ESE 39 46 21 25 1011.5 1011.3 -
25/03:30am 25.9 20.8 17.8 61 5.1 E 41 50 22 27 1011.5 1011.3 -
25/03:00am 25.8 20.9 17.4 59 5.3 E 39 48 21 26 1011.5 1011.3 -
25/02:30am 25.6 22.2 17.8 62 4.9 E 32 37 17 20 1011.9 1011.7 -
25/02:00am 25.6 21.9 17.5 61 5.1 E 33 39 18 21 1011.9 1011.7 -
25/01:30am 25.6 22.2 17.8 62 4.9 E 32 37 17 20 1012.1 1011.9 -
25/01:00am 25.6 22.2 17.8 62 4.9 E 32 35 17 19 1012.5 1012.4 -
25/12:30am 25.3 22.8 18.0 64 4.6 ESE 28 33 15 18 1012.7 1012.6 -
25/12:00am 25.2 22.6 17.7 63 4.7 ESE 28 32 15 17 1012.9 1012.8 -
 
Date/Time
WST
Temp
°C
App
Temp
°C
Dew
Point
Rel
Hum
%
Delta-T
°C
Wind Press
QNH
hPa
Press
MSL
hPa
Rain
since 9 am
mm
Dir
 
Spd
km/h
Gust
km/h
Spd
kts
Gust
kts
24/11:30pm 25.2 21.9 17.1 60 5.0 ESE 30 35 16 19 1012.9 1012.8 -
24/11:00pm 24.9 22.7 17.9 65 4.4 ESE 26 32 14 17 1013.1 1013.0 -
24/10:30pm 24.7 22.4 16.7 61 4.9 ESE 24 32 13 17 1013.3 1013.2 -
24/10:00pm 25.1 22.7 18.3 66 4.3 ESE 28 35 15 19 1013.4 1013.3 -
24/09:30pm 24.6 22.3 17.6 65 4.4 ESE 26 32 14 17 1013.4 1013.3 -
24/09:00pm 24.6 22.4 17.8 66 4.3 SE 26 32 14 17 1013.4 1013.3 -
24/08:30pm 25.7 24.0 19.8 70 3.8 ESE 28 33 15 18 1013.2 1013.1 -
24/08:00pm 26.1 23.6 19.7 68 4.1 E 32 35 17 19 1012.8 1012.7 -
24/07:30pm 26.3 22.4 18.7 63 4.9 E 37 44 20 24 1012.5 1012.4 -
24/07:00pm 26.7 22.1 18.8 62 5.1 E 41 46 22 25 1012.2 1012.0 -
24/06:30pm 26.8 22.4 18.4 60 5.4 E 39 44 21 24 1011.9 1011.7 -
24/06:00pm 26.6 24.8 19.5 65 4.6 E 28 35 15 19 1011.7 1011.5 -
24/05:30pm 26.2 26.1 20.8 72 3.6 E 22 24 12 13 1011.7 1011.5 -
24/05:00pm 26.3 24.4 19.4 66 4.5 E 28 30 15 16 1011.4 1011.2 -
24/04:30pm 26.8 24.8 19.2 63 4.9 ESE 28 32 15 17 1011.3 1011.1 -
24/04:00pm 27.4 24.9 18.1 57 5.9 ESE 28 33 15 18 1011.3 1011.1 -
24/03:30pm 27.1 23.9 18.1 58 5.7 E 32 37 17 20 1011.3 1011.1 -
24/03:00pm 27.4 23.6 17.3 54 6.3 E 33 39 18 21 1011.2 1011.0 -
24/02:30pm 27.1 22.8 17.0 54 6.3 E 35 41 19 22 1011.3 1011.1 -
24/02:00pm 26.8 22.3 17.3 56 6.0 E 37 44 20 24 1011.3 1011.1 -
24/01:30pm 26.6 21.1 16.8 55 6.1 E 41 46 22 25 1011.5 1011.3 -
24/01:00pm 25.9 20.0 16.7 57 5.7 E 43 48 23 26 1011.8 1011.6 -
24/12:30pm 25.9 20.5 17.8 61 5.1 E 43 48 23 26 1012.1 1011.9 -
24/12:00pm 25.8 20.0 17.4 59 5.3 E 44 52 24 28 1012.3 1012.1 -
24/11:30am 25.3 19.4 16.7 59 5.3 ESE 43 48 23 26 1012.7 1012.6 -
24/11:00am 25.1 18.9 16.5 59 5.3 E 44 50 24 27 1012.9 1012.8 -
24/10:30am 24.6 18.5 16.6 61 4.9 ESE 44 52 24 28 1013.1 1013.0 -
24/10:00am 24.5 18.7 17.0 63 4.6 ESE 43 50 23 27 1013.4 1013.3 -
24/09:30am 23.6 17.4 16.4 64 4.4 ESE 44 52 24 28 1013.5 1013.4 -
24/09:00am 23.8 17.4 16.8 65 4.3 ESE 46 54 25 29 1013.4 1013.3 -
24/08:30am 23.4 17.1 16.2 64 4.4 ESE 44 54 24 29 1013.3 1013.2 -
24/08:00am 23.2 15.8 16.3 65 4.2 ESE 50 57 27 31 1013.1 1013.0 -
24/07:30am 22.5 15.5 16.3 68 3.8 ESE 48 56 26 30 1012.9 1012.8 -
24/07:00am 22.3 16.2 16.3 69 3.6 ESE 43 54 23 29 1012.5 1012.4 -
24/06:30am 22.2 15.7 15.5 66 4.0 ESE 44 56 24 30 1012.1 1011.9 -
24/06:00am 22.7 16.2 16.5 68 3.8 ESE 46 57 25 31 1012.0 1011.8 -
24/05:30am 23.0 15.6 16.3 66 4.1 ESE 50 57 27 31 1011.6 1011.4 -
24/05:00am 23.1 17.7 16.9 68 3.8 ESE 41 48 22 26 1011.6 1011.4 -
24/04:30am 23.3 19.0 16.8 67 4.0 ESE 35 43 19 23 1011.8 1011.6 -
24/04:00am 24.1 18.6 17.6 67 4.1 ESE 43 54 23 29 1011.7 1011.5 -
24/03:30am 24.1 18.6 17.6 67 4.1 ESE 43 52 23 28 1011.8 1011.6 -
24/03:00am 24.3 18.8 18.0 68 4.0 E 44 56 24 30 1012.0 1011.8 -
24/02:30am 24.2 17.9 17.2 65 4.3 E 46 54 25 29 1012.0 1011.8 -
24/02:00am 24.4 18.4 17.9 67 4.1 E 46 56 25 30 1012.1 1011.9 -
24/01:30am 24.1 17.6 17.6 67 4.1 ESE 48 57 26 31 1012.0 1011.8 -
24/01:00am 24.3 17.7 18.2 68 3.8 E 50 59 27 32 1012.2 1012.0 -
24/12:30am 24.1 16.8 18.3 70 3.7 E 54 63 29 34 1012.3 1012.1 -
24/12:00am 24.4 18.8 18.8 71 3.6 E 46 57 25 31 1012.5 1012.4 -
 
Date/Time
WST
Temp
°C
App
Temp
°C
Dew
Point
Rel
Hum
%
Delta-T
°C
Wind Press
QNH
hPa
Press
MSL
hPa
Rain
since 9 am
mm
Dir
 
Spd
km/h
Gust
km/h
Spd
kts
Gust
kts
23/11:30pm 24.1 17.7 17.8 68 3.9 E 48 57 26 31 1012.6 1012.5 -
23/11:00pm 24.9 19.5 17.9 65 4.4 E 43 48 23 26 1012.7 1012.6 -
23/10:30pm 24.9 19.4 17.6 64 4.6 E 43 50 23 27 1012.7 1012.6 -
23/10:00pm 25.0 20.3 18.7 68 4.0 E 41 44 22 24 1012.9 1012.8 -
23/09:30pm 24.9 20.8 19.1 70 3.7 E 39 44 21 24 1012.6 1012.5 -
23/09:00pm 24.6 21.7 20.1 76 2.9 E 35 41 19 22 1012.5 1012.4 -
23/08:30pm 24.7 22.1 20.6 78 2.7 E 35 43 19 23 1012.2 1012.0 -
23/08:00pm 24.8 21.9 20.1 75 3.1 E 35 43 19 23 1012.0 1011.8 -
23/07:30pm 24.9 21.7 19.5 72 3.5 E 35 39 19 21 1011.7 1011.5 -
23/07:00pm 24.8 21.8 19.0 70 3.7 E 33 37 18 20 1011.4 1011.2 -
23/06:30pm 24.7 21.8 18.9 70 3.7 E 32 35 17 19 1011.3 1011.1 -
23/06:00pm 24.8 21.4 17.8 65 4.4 E 32 37 17 20 1011.0 1010.8 -
23/05:30pm 24.7 21.3 17.7 65 4.4 E 32 35 17 19 1010.7 1010.5 -
23/05:00pm 24.9 21.3 17.1 62 4.8 E 32 37 17 20 1010.6 1010.4 -
23/04:30pm 24.8 21.3 17.5 64 4.6 E 32 37 17 20 1010.3 1010.1 -
23/04:00pm 24.8 20.5 16.8 61 4.9 ESE 35 39 19 21 1010.4 1010.2 -
23/03:30pm 24.8 20.9 17.0 62 4.8 ESE 33 39 18 21 1010.6 1010.4 -
23/03:00pm 24.8 20.5 17.0 62 4.8 E 35 41 19 22 1010.8 1010.6 -
23/02:30pm 25.1 21.5 17.6 63 4.7 E 33 43 18 23 1010.8 1010.6 -
23/02:00pm 24.9 20.9 16.6 60 5.1 ESE 33 43 18 23 1010.8 1010.6 -
23/01:30pm 24.1 19.6 16.4 62 4.7 E 35 43 19 23 1010.8 1010.6 -
23/01:00pm 23.9 19.1 16.7 64 4.4 E 37 46 20 25 1011.2 1011.0 -
23/12:30pm 23.8 19.0 16.6 64 4.4 E 37 44 20 24 1011.6 1011.4 -
23/12:00pm 23.6 18.0 16.6 65 4.3 E 41 48 22 26 1011.7 1011.5 -
23/11:30am 23.3 17.4 16.8 67 4.0 E 43 52 23 28 1011.8 1011.6 -
23/11:00am 22.9 16.7 16.4 67 4.0 E 44 52 24 28 1012.3 1012.1 -
23/10:30am 22.8 16.3 16.6 68 3.8 E 46 57 25 31 1012.3 1012.1 -
23/10:00am 22.4 15.7 16.0 67 3.9 E 46 54 25 29 1012.5 1012.4 -
23/09:30am 21.9 14.9 15.3 66 3.9 ESE 46 56 25 30 1012.5 1012.4 -
23/09:00am 21.6 15.2 15.4 68 3.7 ESE 43 52 23 28 1012.7 1012.6 -
23/08:30am 21.2 14.7 15.1 68 3.6 ESE 43 52 23 28 1012.8 1012.7 -
23/08:00am 20.8 14.7 15.1 70 3.4 ESE 41 50 22 27 1012.4 1012.2 -
23/07:30am 20.4 14.2 15.0 71 3.2 ESE 41 54 22 29 1012.1 1011.9 -
23/07:00am 20.6 13.6 15.2 71 3.2 ESE 46 54 25 29 1011.9 1011.7 -
23/06:30am 20.3 12.8 15.1 72 3.1 ESE 48 56 26 30 1011.6 1011.4 -
23/06:00am 20.3 13.7 15.3 73 3.0 ESE 44 54 24 29 1011.6 1011.4 -
23/05:30am 20.2 13.6 15.4 74 2.8 ESE 44 52 24 28 1011.3 1011.1 -
23/05:00am 20.1 13.6 15.5 75 2.7 ESE 44 56 24 30 1011.2 1011.0 -
23/04:30am 20.0 13.4 15.4 75 2.7 ESE 44 54 24 29 1010.6 1010.4 -
23/04:00am 19.6 13.9 15.3 76 2.5 ESE 39 48 21 26 1010.5 1010.3 -
23/03:30am 19.6 14.1 15.7 78 2.3 ESE 39 48 21 26 1010.6 1010.4 -
23/03:00am 19.3 14.1 15.6 79 2.2 ESE 37 48 20 26 1010.7 1010.5 -
23/02:30am 19.4 14.8 16.1 81 2.0 ESE 35 44 19 24 1010.9 1010.7 -
23/02:00am 19.3 14.2 15.8 80 2.1 ESE 37 46 20 25 1010.9 1010.7 -
23/01:30am 19.4 14.3 15.7 79 2.2 SE 37 46 20 25 1010.9 1010.7 -
23/01:00am 19.5 14.5 16.2 81 2.0 SE 37 46 20 25 1011.0 1010.8 -
23/12:30am 19.6 13.8 16.1 80 2.1 ESE 41 50 22 27 1011.0 1010.8 -
23/12:00am 19.3 13.4 15.8 80 2.1 SE 41 50 22 27 1011.2 1011.0 -
 
Date/Time
WST
Temp
°C
App
Temp
°C
Dew
Point
Rel
Hum
%
Delta-T
°C
Wind Press
QNH
hPa
Press
MSL
hPa
Rain
since 9 am
mm
Dir
 
Spd
km/h
Gust
km/h
Spd
kts
Gust
kts
22/11:30pm 19.4 14.0 16.1 81 2.0 SE 39 48 21 26 1011.4 1011.2 -
22/11:00pm 19.4 14.3 15.9 80 2.1 SE 37 46 20 25 1011.6 1011.4 -
22/10:30pm 19.4 13.4 15.5 78 2.3 ESE 41 50 22 27 1011.7 1011.5 -
22/10:00pm 19.6 14.5 15.7 78 2.3 SE 37 48 20 26 1012.0 1011.8 -
22/09:30pm 19.7 15.0 15.8 78 2.3 SE 35 46 19 25 1012.0 1011.8 -
22/09:00pm 19.9 14.8 15.7 77 2.5 ESE 37 46 20 25 1011.8 1011.6 -
22/08:30pm 19.9 15.4 15.5 76 2.6 ESE 33 44 18 24 1011.9 1011.7 -
22/08:00pm 20.4 15.6 15.6 74 2.9 ESE 35 46 19 25 1011.7 1011.5 -
22/07:30pm 20.7 15.2 15.7 73 3.0 ESE 39 50 21 27 1011.4 1011.2 -
22/07:00pm 20.9 15.6 15.4 71 3.3 ESE 37 52 20 28 1011.0 1010.8 -
22/06:30pm 21.1 16.2 15.4 70 3.4 SE 35 48 19 26 1010.7 1010.5 -
22/06:00pm 21.4 16.6 15.7 70 3.4 ESE 35 46 19 25 1010.2 1010.0 -
22/05:30pm 21.8 17.5 15.9 69 3.5 SE 33 43 18 23 1010.1 1009.9 -
22/05:00pm 22.2 17.9 16.0 68 3.7 SE 33 43 18 23 1009.6 1009.4 -
22/04:30pm 22.7 17.7 16.0 66 4.1 SE 37 48 20 26 1009.3 1009.1 -
22/04:00pm 23.0 17.7 16.3 66 4.1 ESE 39 48 21 26 1009.0 1008.8 -
22/03:30pm 22.5 16.7 16.1 67 3.9 ESE 41 50 22 27 1008.8 1008.6 -
22/03:00pm 22.6 17.2 15.9 66 4.0 ESE 39 54 21 29 1009.1 1008.9 -
22/02:30pm 22.3 16.9 15.9 67 3.9 ESE 39 48 21 26 1009.3 1009.1 -
22/02:00pm 22.4 16.7 16.2 68 3.8 ESE 41 52 22 28 1009.5 1009.3 -
22/01:30pm 22.7 16.6 16.7 69 3.7 ESE 44 54 24 29 1009.6 1009.4 -
22/01:00pm 22.0 14.9 16.1 69 3.6 ESE 48 56 26 30 1009.5 1009.3 -
22/12:30pm 21.8 14.8 16.3 71 3.3 ESE 48 57 26 31 1009.8 1009.6 -
22/12:00pm 21.2 14.0 15.7 71 3.3 ESE 48 59 26 32 1010.2 1010.0 -
22/11:30am 21.2 13.4 16.2 73 3.0 ESE 52 61 28 33 1010.4 1010.2 -
22/11:00am 21.6 13.5 16.3 72 3.2 ESE 54 63 29 34 1010.7 1010.5 -
22/10:30am 20.9 12.8 16.3 75 2.8 ESE 54 63 29 34 1011.0 1010.8 -
22/10:00am 20.0 11.1 15.4 75 2.7 ESE 56 65 30 35 1011.4 1011.2 -

Other Formats:

Comma delimited format used in spreadsheet applications
http://www.bom.gov.au/fwo/IDW60801/IDW60801.94307.axf

JavaScript Object Notation format (JSON) in row-major order
http://www.bom.gov.au/fwo/IDW60801/IDW60801.94307.json